Date,TemperatureHighF,TemperatureAvgF,TemperatureLowF,DewpointHighF,DewpointAvgF,DewpointLowF,HumidityHigh,HumidityAvg,HumidityLow,PressureMaxIn,PressureMinIn,WindSpeedMaxMPH,WindSpeedAvgMPH,GustSpeedMaxMPH,PrecipitationSumIn
2013-3-1,71,52,31,30,25,15,71,39,15,30.30,30.10,12,4,0,0.00
2013-3-2,65,52,40,31,28,26,65,42,24,30.43,30.26,18,6,0,0.00
2013-3-3,76,57,36,43,32,25,66,42,22,30.28,29.96,17,6,0,0.00
2013-3-4,87,75,57,56,50,42,84,45,22,29.89,29.69,15,7,0,0.00
2013-3-5,68,58,46,57,27,-100,95,40,14,30.35,29.76,27,10,0,0.00
2013-3-6,64,51,38,25,20,15,46,31,16,30.45,30.22,15,5,0,0.00
2013-3-7,73,57,38,56,44,25,81,64,38,30.24,30.08,18,6,0,0.00
2013-3-8,70,64,61,65,52,-100,94,81,76,30.12,29.97,15,8,0,0.02
2013-3-9,76,68,63,68,64,60,95,87,71,30.01,29.61,21,10,0,0.04
2013-3-10,69,62,52,64,45,33,94,55,31,30.11,29.62,15,8,0,0.54
2013-3-11,70,55,40,35,30,24,67,42,21,30.19,29.99,13,5,0,0.00
2013-3-12,79,60,38,42,33,27,81,41,17,30.19,30.05,13,4,0,0.00
2013-3-13,77,60,44,48,32,-100,86,48,25,30.42,30.20,11,4,0,0.00
2013-3-14,78,62,45,55,24,-100,93,49,30,30.38,30.19,14,6,0,0.00
2013-3-15,81,65,51,57,20,-100,95,47,25,30.24,29.97,22,7,0,0.00
2013-3-16,85,68,54,62,37,-100,95,59,33,30.00,29.71,24,9,0,0.00
2013-3-17,87,73,66,65,57,-100,86,68,39,29.80,29.61,13,6,0,0.00
2013-3-18,94,74,63,66,36,-100,95,50,12,29.89,29.69,15,6,0,0.00
2013-3-19,79,68,53,65,55,-100,76,65,53,29.96,29.79,16,6,0,0.00
2013-3-20,71,64,57,64,52,40,84,66,41,30.20,29.91,21,10,0,0.00
2013-3-21,76,65,52,61,53,41,82,66,54,30.01,29.61,19,7,0,0.00
2013-3-22,87,73,66,68,64,54,95,77,40,29.70,29.58,15,6,0,0.00
2013-3-23,81,66,55,63,56,50,84,71,51,29.75,29.55,13,6,0,0.01
2013-3-24,66,56,46,59,23,-100,88,42,22,30.15,29.67,26,11,0,0.00
2013-3-25,60,48,38,27,21,13,61,38,16,30.37,30.15,17,6,0,0.00
2013-3-26,66,51,37,25,22,19,56,35,17,30.50,30.28,10,3,0,0.00
2013-3-27,68,56,37,51,39,26,75,56,38,30.33,30.15,18,6,0,0.00
2013-3-28,72,65,58,59,54,-100,83,72,62,30.19,30.10,15,7,0,0.00
2013-3-29,79,68,55,61,51,-100,95,68,46,30.16,30.02,16,6,0,0.00
2013-3-30,84,73,65,65,61,-100,90,72,45,30.09,29.86,14,7,0,0.00
2013-3-31,83,71,63,66,63,58,91,79,50,29.93,29.78,16,5,0,0.03